Time;durP1;ratioP1;P1;durP2;ratioP2;P2;SDS_P1;SDS_P2;PMS_P1;PMS_P2;Temp;Humidity;BMP_temperature;BMP_pressure;BME280_temperature;BME280_humidity;BME280_pressure;Samples;Min_cycle;Max_cycle;Signal;HPM_P1;HPM_P2
2023/04/25 00:00:34;;;;;;;12.15;3.15;;;6.40;99.90;;;;;;4978278;28;20037;-71
2023/04/25 00:03:00;;;;;;;6.97;1.83;;;6.40;99.90;;;;;;4971839;28;20313;-71
2023/04/25 00:05:27;;;;;;;13.90;2.28;;;6.30;99.90;;;;;;4970670;28;20048;-71
2023/04/25 00:07:54;;;;;;;12.15;3.30;;;6.30;99.90;;;;;;4989703;28;20036;-71
2023/04/25 00:10:20;;;;;;;10.40;3.40;;;6.20;99.90;;;;;;4973303;28;20520;-71
2023/04/25 00:12:47;;;;;;;8.52;2.25;;;6.20;99.90;;;;;;4996054;28;20045;-71
2023/04/25 00:15:14;;;;;;;12.13;3.45;;;6.20;99.90;;;;;;5018922;28;20059;-71
2023/04/25 00:17:40;;;;;;;13.70;3.15;;;6.10;99.90;;;;;;4985350;28;20041;-70
2023/04/25 00:20:10;;;;;;;12.77;3.72;;;6.10;99.90;;;;;;4982431;28;20056;-70
2023/04/25 00:22:37;;;;;;;12.82;3.55;;;6.10;99.90;;;;;;4981122;28;20256;-71
2023/04/25 00:25:07;;;;;;;16.58;3.90;;;6.00;99.90;;;;;;4985028;28;20397;-71
2023/04/25 00:27:33;;;;;;;9.32;3.10;;;6.00;99.90;;;;;;4989551;28;20029;-71
2023/04/25 00:29:59;;;;;;;12.25;4.13;;;5.90;99.90;;;;;;4992868;28;20042;-71
2023/04/25 00:32:26;;;;;;;11.73;3.25;;;5.90;99.90;;;;;;4977957;28;20037;-72
2023/04/25 00:34:52;;;;;;;19.48;3.92;;;5.90;99.90;;;;;;4991217;28;20037;-71
2023/04/25 00:37:19;;;;;;;18.35;4.25;;;5.80;99.90;;;;;;4953427;28;20389;-71
2023/04/25 00:39:46;;;;;;;15.40;3.47;;;5.80;99.90;;;;;;4984284;28;20046;-71
2023/04/25 00:42:12;;;;;;;16.05;4.13;;;5.70;99.90;;;;;;4983173;28;20084;-71
2023/04/25 00:44:40;;;;;;;11.18;2.97;;;5.70;99.90;;;;;;4971347;28;20317;-71
2023/04/25 00:47:07;;;;;;;10.98;3.10;;;5.70;99.90;;;;;;4985899;28;20060;-71
2023/04/25 00:49:33;;;;;;;9.88;3.10;;;5.70;99.90;;;;;;5009199;28;20046;-71
2023/04/25 00:51:59;;;;;;;14.60;4.47;;;5.60;99.90;;;;;;4991396;28;20055;-71
2023/04/25 00:54:26;;;;;;;13.23;3.25;;;5.70;99.90;;;;;;4973877;28;20044;-70
2023/04/25 00:56:52;;;;;;;16.30;4.13;;;5.70;99.90;;;;;;4985526;28;20106;-71
2023/04/25 00:59:20;;;;;;;12.43;3.70;;;5.70;99.90;;;;;;4987809;28;20041;-70
2023/04/25 01:01:46;;;;;;;11.23;3.10;;;5.70;99.90;;;;;;4980453;28;20041;-71
2023/04/25 01:04:13;;;;;;;15.07;3.38;;;5.70;99.90;;;;;;4989893;28;20042;-70
2023/04/25 01:06:40;;;;;;;12.85;3.13;;;5.70;99.90;;;;;;4998934;28;20060;-71
2023/04/25 01:09:07;;;;;;;10.30;3.45;;;5.70;99.90;;;;;;4995934;28;22087;-70
2023/04/25 01:11:33;;;;;;;12.95;3.67;;;5.60;99.90;;;;;;5018292;28;20194;-70
2023/04/25 01:14:01;;;;;;;12.73;3.85;;;5.60;99.90;;;;;;4975531;28;20036;-70
2023/04/25 01:16:28;;;;;;;12.88;4.10;;;5.50;99.90;;;;;;4988281;28;20033;-71
2023/04/25 01:18:54;;;;;;;15.52;4.20;;;5.50;99.90;;;;;;4988057;28;20048;-70
2023/04/25 01:21:21;;;;;;;10.88;3.92;;;5.50;99.90;;;;;;4980201;28;20398;-71
2023/04/25 01:23:48;;;;;;;15.85;4.05;;;5.50;99.90;;;;;;5003262;28;21324;-71
2023/04/25 01:26:15;;;;;;;16.45;4.13;;;5.50;99.90;;;;;;4987703;28;20472;-70
2023/04/25 01:28:42;;;;;;;10.05;3.42;;;5.50;99.90;;;;;;4979196;28;20037;-71
2023/04/25 01:31:11;;;;;;;22.73;4.50;;;5.50;99.90;;;;;;4986569;28;20033;-71
2023/04/25 01:33:38;;;;;;;28.45;7.55;;;5.50;99.90;;;;;;4993730;28;20241;-71
2023/04/25 01:36:05;;;;;;;15.07;5.97;;;5.60;99.90;;;;;;4985511;28;20048;-71
2023/04/25 01:38:32;;;;;;;19.50;5.45;;;5.60;99.90;;;;;;4985579;28;20037;-71
2023/04/25 01:41:00;;;;;;;21.30;6.07;;;5.60;99.90;;;;;;4963703;28;20033;-72
2023/04/25 01:43:27;;;;;;;20.73;6.47;;;5.70;99.90;;;;;;5000934;28;20038;-71
2023/04/25 01:45:54;;;;;;;26.02;6.70;;;5.70;99.90;;;;;;4988324;28;20437;-71
2023/04/25 01:48:20;;;;;;;22.17;6.53;;;5.80;99.90;;;;;;4994560;28;20050;-71
2023/04/25 01:50:47;;;;;;;25.25;7.72;;;5.80;99.90;;;;;;4971019;28;20057;-71
2023/04/25 01:53:14;;;;;;;17.17;6.10;;;5.80;99.90;;;;;;4993071;28;20040;-71
2023/04/25 01:55:43;;;;;;;27.35;6.50;;;5.80;99.90;;;;;;5001474;28;20874;-71
2023/04/25 01:58:13;;;;;;;26.75;6.32;;;5.90;99.90;;;;;;4986420;28;20033;-71
2023/04/25 02:01:02;;;;;;;22.63;7.35;;;5.90;99.90;;;;;;4972685;28;20052;-70
2023/04/25 02:03:34;;;;;;;;;;;5.90;99.90;;;;;;4987494;28;20033;-71
2023/04/25 02:06:03;;;;;;;19.40;5.75;;;5.90;99.90;;;;;;4985505;28;20383;-70
2023/04/25 02:08:32;;;;;;;19.48;6.00;;;5.90;99.90;;;;;;4987269;28;20030;-71
2023/04/25 02:10:58;;;;;;;19.38;5.78;;;5.80;99.90;;;;;;4985468;28;20733;-71
2023/04/25 02:13:30;;;;;;;17.65;5.93;;;5.80;99.90;;;;;;4994744;28;20033;-70
2023/04/25 02:16:17;;;;;;;23.00;6.80;;;5.80;99.90;;;;;;4989566;28;20053;-70
2023/04/25 02:18:44;;;;;;;26.13;7.85;;;5.80;99.90;;;;;;4985169;28;20033;-71
2023/04/25 02:21:11;;;;;;;30.15;7.88;;;5.80;99.90;;;;;;4961511;28;20040;-71
2023/04/25 02:23:37;;;;;;;23.02;6.88;;;5.80;99.90;;;;;;4969595;28;20080;-71
2023/04/25 02:26:04;;;;;;;22.23;6.22;;;5.70;99.90;;;;;;4982612;28;20035;-71
2023/04/25 02:28:30;;;;;;;22.55;6.13;;;5.70;99.90;;;;;;4988340;28;20060;-70
2023/04/25 02:30:57;;;;;;;25.00;6.95;;;5.70;99.90;;;;;;4969536;28;20041;-70
2023/04/25 02:33:24;;;;;;;17.77;5.93;;;5.70;99.90;;;;;;4978508;28;20503;-70
2023/04/25 02:35:50;;;;;;;23.83;8.25;;;5.70;99.90;;;;;;4984473;28;20033;-71
2023/04/25 02:38:17;;;;;;;25.85;6.63;;;5.70;99.90;;;;;;4969498;28;20029;-71
2023/04/25 02:40:43;;;;;;;22.65;6.47;;;5.70;99.90;;;;;;4959194;28;20044;-71
2023/04/25 02:43:09;;;;;;;18.55;6.10;;;5.70;99.90;;;;;;5002198;28;20687;-70
2023/04/25 02:45:36;;;;;;;20.25;6.45;;;5.60;99.90;;;;;;4984448;28;20042;-70
2023/04/25 02:48:03;;;;;;;17.45;6.45;;;5.60;99.90;;;;;;4953253;28;20029;-70
2023/04/25 02:50:31;;;;;;;21.63;6.35;;;5.50;99.90;;;;;;4964448;28;20060;-70
2023/04/25 02:52:58;;;;;;;23.60;6.30;;;5.50;99.90;;;;;;4992954;28;20515;-71
2023/04/25 02:55:30;;;;;;;16.15;6.13;;;5.50;99.90;;;;;;4975356;28;20499;-71
2023/04/25 02:57:57;;;;;;;15.70;5.28;;;5.40;99.90;;;;;;4982927;28;20038;-70
2023/04/25 03:00:43;;;;;;;10.73;4.43;;;5.30;99.90;;;;;;4977908;28;20049;-70
2023/04/25 03:03:11;;;;;;;16.58;4.85;;;5.20;99.90;;;;;;4987338;28;20571;-70
2023/04/25 03:05:37;;;;;;;17.35;5.18;;;5.20;99.90;;;;;;4984158;28;20465;-70
2023/04/25 03:08:04;;;;;;;21.02;5.60;;;5.20;99.90;;;;;;4969098;28;20052;-71
2023/04/25 03:10:32;;;;;;;13.00;4.32;;;5.10;99.90;;;;;;4946073;28;20860;-70
2023/04/25 03:13:03;;;;;;;14.73;4.53;;;5.10;99.90;;;;;;4994110;28;20033;-70
2023/04/25 03:15:31;;;;;;;16.13;5.45;;;5.00;99.90;;;;;;4992405;28;20025;-71
2023/04/25 03:17:57;;;;;;;7.68;3.72;;;5.00;99.90;;;;;;4990286;28;20033;-71
2023/04/25 03:20:24;;;;;;;15.48;4.60;;;4.90;99.90;;;;;;4964364;28;20041;-71
2023/04/25 03:22:50;;;;;;;14.93;4.22;;;4.90;99.90;;;;;;4968486;28;20037;-71
2023/04/25 03:25:18;;;;;;;12.85;4.18;;;4.80;99.90;;;;;;4981770;28;20045;-71
2023/04/25 03:27:45;;;;;;;19.13;4.55;;;4.80;99.90;;;;;;4966493;28;20142;-71
2023/04/25 03:30:11;;;;;;;14.05;4.03;;;4.90;99.90;;;;;;4966827;28;20045;-71
2023/04/25 03:32:39;;;;;;;10.15;4.47;;;4.80;99.90;;;;;;4990747;28;20048;-70
2023/04/25 03:35:07;;;;;;;12.68;3.50;;;4.80;99.90;;;;;;4977566;28;20029;-70
2023/04/25 03:37:34;;;;;;;12.35;4.45;;;4.70;99.90;;;;;;4993820;28;20037;-71
2023/04/25 03:40:02;;;;;;;15.27;4.65;;;4.70;99.90;;;;;;4983015;28;20029;-71
2023/04/25 03:42:47;;;;;;;13.77;4.00;;;4.70;99.90;;;;;;4988736;28;20365;-71
2023/04/25 03:45:14;;;;;;;12.70;4.47;;;4.60;99.90;;;;;;4972133;28;20029;-71
2023/04/25 03:47:40;;;;;;;18.77;4.80;;;4.60;99.90;;;;;;4985079;28;20041;-71
2023/04/25 03:50:07;;;;;;;10.65;4.20;;;4.60;99.90;;;;;;4985867;28;20042;-71
2023/04/25 03:52:34;;;;;;;11.90;4.45;;;4.60;99.90;;;;;;4977241;28;20037;-70
2023/04/25 03:55:00;;;;;;;15.50;4.43;;;4.70;99.90;;;;;;5000077;28;20048;-70
2023/04/25 03:57:27;;;;;;;17.98;4.57;;;4.70;99.90;;;;;;4998494;28;20037;-70
2023/04/25 03:59:53;;;;;;;16.60;4.55;;;4.60;99.90;;;;;;4983593;28;20053;-70
2023/04/25 04:02:20;;;;;;;14.25;5.32;;;4.60;99.90;;;;;;4949507;28;20040;-70
2023/04/25 04:04:46;;;;;;;16.40;4.82;;;4.60;99.90;;;;;;4971283;28;20052;-70
2023/04/25 04:07:13;;;;;;;12.90;4.18;;;4.50;99.90;;;;;;5018559;28;20038;-71
2023/04/25 04:09:42;;;;;;;13.18;3.40;;;4.50;99.90;;;;;;4972163;28;20778;-70
2023/04/25 04:12:13;;;;;;;18.45;4.60;;;4.50;99.90;;;;;;4988112;28;20510;-71
2023/04/25 04:14:41;;;;;;;13.80;5.00;;;4.40;99.90;;;;;;4997244;28;20136;-71
2023/04/25 04:17:07;;;;;;;17.58;5.10;;;4.40;99.90;;;;;;4995573;28;20037;-71
2023/04/25 04:19:33;;;;;;;15.75;5.10;;;4.40;99.90;;;;;;4970430;28;20072;-71
2023/04/25 04:22:07;;;;;;;16.52;5.25;;;4.30;99.90;;;;;;4965875;28;20387;-70
2023/04/25 04:24:35;;;;;;;28.05;6.30;;;4.30;99.90;;;;;;4986329;28;20046;-70
2023/04/25 04:27:05;;;;;;;20.05;5.43;;;4.30;99.90;;;;;;4986278;28;20044;-71
2023/04/25 04:29:52;;;;;;;20.30;6.00;;;4.30;99.90;;;;;;4985053;28;20048;-71
2023/04/25 04:32:37;;;;;;;15.70;5.85;;;4.30;99.90;;;;;;4989263;28;20832;-72
2023/04/25 04:35:06;;;;;;;19.40;5.75;;;4.30;99.90;;;;;;4998025;28;20037;-70
2023/04/25 04:37:33;;;;;;;20.73;5.65;;;4.40;99.90;;;;;;4995223;28;20033;-71
2023/04/25 04:40:04;;;;;;;20.77;5.82;;;4.40;99.90;;;;;;4982328;28;20029;-71
2023/04/25 04:42:49;;;;;;;15.98;5.57;;;4.40;99.90;;;;;;4973780;28;20034;-71
2023/04/25 04:45:34;;;;;;;18.90;5.63;;;4.50;99.90;;;;;;5002436;28;20041;-71
2023/04/25 04:48:13;;;;;;;14.80;6.45;;;4.60;99.90;;;;;;5018598;28;20956;-71
2023/04/25 04:50:59;;;;;;;24.73;7.70;;;4.70;99.90;;;;;;4979349;28;20045;-71
2023/04/25 04:53:44;;;;;;;18.70;7.07;;;4.70;99.90;;;;;;4994566;28;20025;-71
2023/04/25 04:56:43;;;;;;;28.58;8.23;;;4.80;99.90;;;;;;4985103;28;20049;-71
2023/04/25 04:59:35;;;;;;;21.35;8.25;;;4.90;99.90;;;;;;4987766;28;20045;-71
2023/04/25 05:02:20;;;;;;;21.95;7.55;;;4.90;99.90;;;;;;4984320;28;20491;-71
2023/04/25 05:04:59;;;;;;;18.47;6.60;;;4.90;99.90;;;;;;4958182;28;20056;-71
2023/04/25 05:07:35;;;;;;;19.60;7.15;;;5.00;99.90;;;;;;4990700;28;20037;-71
2023/04/25 05:10:20;;;;;;;21.05;7.60;;;5.00;99.90;;;;;;4981661;28;20052;-71
2023/04/25 05:13:25;;;;;;;13.63;6.60;;;5.00;99.90;;;;;;4971003;28;20073;-71
2023/04/25 05:16:03;;;;;;;17.25;6.82;;;5.00;99.90;;;;;;4958717;28;20034;-71
2023/04/25 05:18:49;;;;;;;24.45;7.15;;;5.10;99.90;;;;;;4982336;28;20041;-71
2023/04/25 05:21:35;;;;;;;20.35;7.00;;;5.10;99.90;;;;;;4976105;28;20052;-71
2023/04/25 05:24:37;;;;;;;16.88;6.95;;;5.10;99.90;;;;;;4945257;28;20033;-71
2023/04/25 05:27:26;;;;;;;22.58;7.47;;;5.20;99.90;;;;;;4968671;28;20053;-71
2023/04/25 05:29:59;;;;;;;17.17;5.75;;;5.20;99.90;;;;;;4982879;28;20620;-71
2023/04/25 05:32:28;;;;;;;16.23;6.22;;;5.30;99.90;;;;;;4968652;28;20045;-72
2023/04/25 05:34:55;;;;;;;16.70;5.60;;;5.30;99.90;;;;;;4995067;28;20459;-72
2023/04/25 05:37:26;;;;;;;13.52;5.38;;;5.30;99.90;;;;;;4994915;28;20573;-71
2023/04/25 05:39:59;;;;;;;13.30;5.38;;;5.30;99.90;;;;;;4988001;28;20033;-71
2023/04/25 05:42:57;;;;;;;22.13;6.68;;;5.30;99.90;;;;;;4983195;28;20029;-70
2023/04/25 05:45:46;;;;;;;12.98;4.95;;;5.30;99.90;;;;;;4989949;28;20052;-70
2023/04/25 05:48:35;;;;;;;20.25;6.28;;;5.30;99.90;;;;;;4990631;28;20038;-69
2023/04/25 05:51:16;;;;;;;12.90;6.00;;;5.30;99.90;;;;;;4983406;28;20061;-70
2023/04/25 05:54:00;;;;;;;15.38;6.07;;;5.30;99.90;;;;;;5011583;28;20377;-71
2023/04/25 05:56:27;;;;;;;18.98;7.75;;;5.30;99.90;;;;;;4981962;28;20049;-69
2023/04/25 05:58:53;;;;;;;23.60;10.15;;;5.30;99.90;;;;;;4991618;28;20048;-71
2023/04/25 06:01:22;;;;;;;19.15;8.65;;;5.30;99.90;;;;;;4978239;28;20863;-70
2023/04/25 06:03:49;;;;;;;16.23;7.28;;;5.30;99.90;;;;;;5002835;28;20037;-71
2023/04/25 06:06:17;;;;;;;18.45;7.60;;;5.40;99.90;;;;;;5000219;28;20029;-71
2023/04/25 06:08:43;;;;;;;22.63;7.07;;;5.40;99.90;;;;;;4984346;28;20388;-70
2023/04/25 06:11:11;;;;;;;18.83;6.80;;;5.60;99.90;;;;;;4962493;28;21770;-70
2023/04/25 06:13:38;;;;;;;20.70;7.88;;;5.70;99.90;;;;;;4992549;28;20046;-71
2023/04/25 06:16:04;;;;;;;18.73;6.80;;;5.80;99.90;;;;;;4994967;28;20392;-73
2023/04/25 06:18:31;;;;;;;25.75;8.57;;;5.90;99.90;;;;;;4994148;28;20647;-70
2023/04/25 06:20:58;;;;;;;12.45;6.50;;;6.00;99.90;;;;;;4978445;28;20037;-71
2023/04/25 06:23:25;;;;;;;17.83;5.55;;;6.20;99.90;;;;;;4984586;28;20477;-72
2023/04/25 06:25:57;;;;;;;15.88;4.80;;;6.30;99.90;;;;;;4971749;28;21008;-74
2023/04/25 06:28:24;;;;;;;11.77;4.45;;;6.30;99.90;;;;;;4986516;28;21548;-72
2023/04/25 06:30:50;;;;;;;12.40;4.05;;;6.40;99.90;;;;;;4980864;28;20076;-72
2023/04/25 06:33:20;;;;;;;13.70;4.15;;;6.60;99.90;;;;;;4990169;28;20045;-73
2023/04/25 06:35:46;;;;;;;7.75;3.55;;;6.80;99.90;;;;;;4995263;28;22983;-72
2023/04/25 06:38:16;;;;;;;8.70;3.28;;;6.90;99.90;;;;;;4976637;28;20036;-72
2023/04/25 06:40:47;;;;;;;8.85;2.90;;;6.90;99.90;;;;;;4963796;28;20806;-72
2023/04/25 06:43:13;;;;;;;7.68;3.00;;;7.00;99.90;;;;;;5020596;28;20032;-71
2023/04/25 06:45:56;;;;;;;11.25;3.30;;;7.10;99.90;;;;;;4971985;28;20851;-71
2023/04/25 06:48:27;;;;;;;8.38;2.97;;;7.20;99.90;;;;;;4986812;28;20033;-72
2023/04/25 06:50:54;;;;;;;10.55;3.05;;;7.30;99.90;;;;;;4981966;28;23239;-72
2023/04/25 06:53:20;;;;;;;8.82;3.47;;;7.40;99.90;;;;;;4994787;28;20025;-72
2023/04/25 06:55:52;;;;;;;10.27;3.95;;;7.60;99.90;;;;;;4996465;28;20639;-72
2023/04/25 06:58:21;;;;;;;11.27;3.45;;;7.70;99.90;;;;;;4992344;28;20028;-72
2023/04/25 07:00:54;;;;;;;;;;;7.80;99.90;;;;;;4994633;28;20041;-72
2023/04/25 07:03:23;;;;;;;10.00;3.40;;;7.90;99.90;;;;;;4985699;28;20008;-71
2023/04/25 07:05:52;;;;;;;12.43;3.45;;;7.90;99.90;;;;;;4984714;28;20018;-72
2023/04/25 07:08:18;;;;;;;11.23;3.33;;;7.90;99.90;;;;;;4964078;28;20052;-72
2023/04/25 07:10:45;;;;;;;10.88;2.40;;;7.80;99.90;;;;;;4973471;28;20831;-72
2023/04/25 07:13:12;;;;;;;8.48;2.90;;;7.80;99.90;;;;;;4974427;28;20050;-72
2023/04/25 07:15:38;;;;;;;14.80;3.22;;;7.80;99.90;;;;;;4978335;28;20041;-72
2023/04/25 07:18:06;;;;;;;9.95;2.65;;;7.80;99.90;;;;;;4992936;28;20029;-71
2023/04/25 07:20:32;;;;;;;10.27;2.95;;;7.90;99.90;;;;;;4976959;28;20516;-69
2023/04/25 07:22:59;;;;;;;5.68;2.45;;;8.10;99.90;;;;;;4999422;28;20052;-69
2023/04/25 07:25:26;;;;;;;12.38;3.72;;;8.50;99.90;;;;;;4969464;28;20037;-70
2023/04/25 07:27:53;;;;;;;11.68;3.30;;;8.70;99.90;;;;;;4998110;28;20038;-70
2023/04/25 07:30:22;;;;;;;8.32;2.85;;;9.00;99.90;;;;;;4977528;28;20033;-70
2023/04/25 07:32:49;;;;;;;15.45;3.00;;;9.30;99.90;;;;;;4992795;28;20029;-70
2023/04/25 07:35:17;;;;;;;11.02;3.65;;;9.70;99.90;;;;;;4993001;28;20029;-71
2023/04/25 07:37:43;;;;;;;10.77;2.67;;;10.10;99.90;;;;;;4991863;28;20037;-71
2023/04/25 07:40:16;;;;;;;12.60;2.60;;;10.30;99.90;;;;;;4982810;28;20637;-70
2023/04/25 07:42:49;;;;;;;11.73;2.17;;;10.40;99.90;;;;;;4985406;28;20045;-71
2023/04/25 07:45:21;;;;;;;12.32;2.78;;;10.40;99.90;;;;;;4986663;28;20040;-71
2023/04/25 07:47:47;;;;;;;11.15;1.92;;;10.30;99.90;;;;;;4983730;28;20040;-71
2023/04/25 07:50:14;;;;;;;12.77;2.20;;;10.20;99.90;;;;;;4980403;28;20056;-71
2023/04/25 07:52:40;;;;;;;10.30;2.15;;;10.10;99.90;;;;;;5017243;28;20072;-73
2023/04/25 07:55:30;;;;;;;11.90;2.00;;;10.10;99.90;;;;;;4987799;28;20036;-71
2023/04/25 07:58:04;;;;;;;6.72;1.42;;;10.00;99.90;;;;;;4992679;28;20048;-72
2023/04/25 08:00:32;;;;;;;5.50;1.63;;;10.10;99.90;;;;;;4964095;28;20049;-71
2023/04/25 08:03:18;;;;;;;11.75;2.03;;;10.10;99.90;;;;;;4985517;28;20041;-71
2023/04/25 08:05:45;;;;;;;9.95;1.80;;;10.10;99.90;;;;;;4984210;28;21352;-71
2023/04/25 08:08:13;;;;;;;7.63;1.63;;;10.10;99.90;;;;;;4985705;28;20048;-71
2023/04/25 08:10:41;;;;;;;13.38;2.28;;;10.00;99.90;;;;;;4977237;28;20049;-71
2023/04/25 08:13:07;;;;;;;7.80;1.10;;;10.00;99.90;;;;;;4972510;28;20843;-71
2023/04/25 08:15:34;;;;;;;8.40;1.33;;;10.10;99.90;;;;;;5026044;28;20500;-72
2023/04/25 08:18:00;;;;;;;9.65;1.15;;;10.20;99.90;;;;;;4992112;28;20964;-72
2023/04/25 08:20:26;;;;;;;8.95;1.13;;;10.30;99.90;;;;;;4977380;28;20625;-72
2023/04/25 08:22:55;;;;;;;6.85;0.95;;;10.50;99.90;;;;;;4970402;28;20044;-72
2023/04/25 08:25:31;;;;;;;6.18;0.90;;;10.60;99.90;;;;;;4988410;28;20056;-72
2023/04/25 08:27:59;;;;;;;7.63;0.68;;;10.70;99.90;;;;;;4973624;28;20072;-72
2023/04/25 08:30:26;;;;;;;6.60;0.70;;;10.70;99.90;;;;;;4982281;28;20559;-72
2023/04/25 08:32:53;;;;;;;4.63;0.50;;;10.80;99.90;;;;;;4975087;28;20631;-72
2023/04/25 08:35:50;;;;;;;5.05;0.50;;;11.10;99.90;;;;;;4982082;28;20041;-72
2023/04/25 08:38:17;;;;;;;5.10;0.95;;;11.40;99.90;;;;;;4993369;28;20182;-72
2023/04/25 08:40:48;;;;;;;5.70;0.75;;;11.40;99.90;;;;;;4967984;28;20384;-72
2023/04/25 08:43:19;;;;;;;6.45;0.65;;;11.20;99.90;;;;;;5006487;28;20033;-72
2023/04/25 08:45:47;;;;;;;3.63;0.60;;;11.10;99.90;;;;;;4988872;28;20045;-72
2023/04/25 08:48:26;;;;;;;3.13;0.63;;;10.90;99.90;;;;;;4987287;28;20033;-72
2023/04/25 08:50:54;;;;;;;6.22;0.70;;;10.80;99.90;;;;;;5015443;28;20050;-72
2023/04/25 08:53:29;;;;;;;8.20;0.85;;;10.80;99.90;;;;;;5011845;28;20052;-72
2023/04/25 08:56:01;;;;;;;4.50;0.65;;;10.80;99.90;;;;;;4980703;28;20386;-72
2023/04/25 08:58:28;;;;;;;3.70;0.40;;;10.80;99.90;;;;;;4991586;28;20041;-72
2023/04/25 09:00:55;;;;;;;7.65;0.73;;;10.80;99.90;;;;;;4962504;28;20357;-72
2023/04/25 09:03:24;;;;;;;6.45;0.60;;;10.80;99.90;;;;;;4988373;28;20469;-72
2023/04/25 09:05:52;;;;;;;3.92;0.55;;;10.80;99.90;;;;;;4987909;28;20037;-72
2023/04/25 09:08:18;;;;;;;4.25;0.63;;;10.70;99.90;;;;;;4988181;28;20551;-73
2023/04/25 09:10:45;;;;;;;7.43;0.88;;;10.70;99.90;;;;;;5013626;28;20056;-73
2023/04/25 09:13:23;;;;;;;5.07;0.50;;;10.60;99.90;;;;;;5029865;28;20400;-73
2023/04/25 09:16:08;;;;;;;6.20;1.35;;;10.60;99.90;;;;;;4997260;28;20249;-72
2023/04/25 09:18:43;;;;;;;7.45;1.20;;;10.70;99.90;;;;;;4972317;28;20017;-73
2023/04/25 09:21:12;;;;;;;2.35;0.63;;;10.80;99.90;;;;;;4981215;28;20040;-73
2023/04/25 09:23:45;;;;;;;4.13;0.77;;;10.90;99.90;;;;;;4987403;28;20033;-74
2023/04/25 09:26:18;;;;;;;9.63;1.02;;;10.90;99.90;;;;;;4969315;28;20495;-73
2023/04/25 09:28:47;;;;;;;3.45;0.55;;;11.00;99.90;;;;;;4989591;28;20064;-73
2023/04/25 09:31:25;;;;;;;4.30;0.95;;;11.10;99.90;;;;;;4953074;28;20052;-72
2023/04/25 09:34:02;;;;;;;5.60;0.50;;;11.20;99.90;;;;;;4996242;28;20029;-72
2023/04/25 09:36:31;;;;;;;4.32;0.50;;;11.20;99.90;;;;;;4993597;28;20037;-72
2023/04/25 09:39:22;;;;;;;8.15;0.82;;;11.20;99.90;;;;;;4985123;28;22185;-72
2023/04/25 09:41:56;;;;;;;4.47;0.65;;;11.10;99.90;;;;;;4965713;28;21196;-72
2023/04/25 09:44:24;;;;;;;4.07;0.40;;;11.10;99.90;;;;;;4989330;28;20816;-72
2023/04/25 09:46:53;;;;;;;6.05;0.40;;;11.30;99.90;;;;;;4984435;28;20048;-72
2023/04/25 09:49:21;;;;;;;3.17;0.50;;;11.40;99.90;;;;;;5001340;28;20496;-72
2023/04/25 09:52:16;;;;;;;5.18;0.60;;;11.60;99.90;;;;;;4984201;28;20049;-72
2023/04/25 09:54:55;;;;;;;3.45;0.50;;;11.70;99.90;;;;;;4967437;28;20440;-72
2023/04/25 09:57:28;;;;;;;3.90;0.52;;;12.00;99.90;;;;;;4982227;28;20049;-74
2023/04/25 09:59:58;;;;;;;4.75;0.43;;;12.10;99.90;;;;;;4987027;28;20030;-72
2023/04/25 10:02:29;;;;;;;3.85;0.32;;;12.20;99.90;;;;;;4982026;28;20038;-71
2023/04/25 10:05:06;;;;;;;2.85;0.50;;;12.20;99.90;;;;;;4970537;28;20044;-72
2023/04/25 10:07:39;;;;;;;2.47;0.40;;;12.20;99.90;;;;;;4985971;28;20044;-71
2023/04/25 10:10:12;;;;;;;;;;;12.20;99.90;;;;;;4967649;28;20458;-72
2023/04/25 10:12:40;;;;;;;4.72;0.43;;;12.30;99.90;;;;;;4991761;28;20000;-71
2023/04/25 10:15:08;;;;;;;3.60;0.50;;;12.50;99.90;;;;;;4995678;28;20048;-71
2023/04/25 10:17:35;;;;;;;4.15;0.50;;;12.80;99.90;;;;;;4993073;28;20416;-72
2023/04/25 10:20:08;;;;;;;5.57;0.50;;;12.80;99.90;;;;;;4983945;28;20336;-71
2023/04/25 10:22:45;;;;;;;5.97;0.60;;;12.90;99.90;;;;;;4984848;28;20100;-72
2023/04/25 10:25:13;;;;;;;3.63;0.30;;;13.20;99.90;;;;;;5017655;28;20324;-71
2023/04/25 10:27:40;;;;;;;2.35;0.30;;;13.30;99.90;;;;;;4988464;28;20468;-72
2023/04/25 10:30:12;;;;;;;4.03;0.40;;;13.50;99.90;;;;;;4981086;28;20045;-72
2023/04/25 10:32:38;;;;;;;3.00;0.60;;;14.00;99.90;;;;;;4989634;28;20507;-72
2023/04/25 10:35:19;;;;;;;6.30;0.50;;;14.20;99.90;;;;;;5026779;28;20042;-72
2023/04/25 10:37:58;;;;;;;2.67;0.55;;;13.90;99.90;;;;;;4995524;28;20353;-72
2023/04/25 10:40:25;;;;;;;4.68;0.55;;;13.40;99.90;;;;;;4979596;28;20040;-72
2023/04/25 10:42:54;;;;;;;11.52;1.30;;;13.00;99.90;;;;;;4986590;28;20433;-72
2023/04/25 10:45:20;;;;;;;3.80;0.52;;;12.40;99.90;;;;;;4985992;28;20061;-72
2023/04/25 10:47:47;;;;;;;3.83;0.60;;;11.90;99.90;;;;;;4986353;28;20044;-73
2023/04/25 10:50:17;;;;;;;3.65;0.40;;;11.50;99.90;;;;;;4983653;28;20060;-71
2023/04/25 10:52:44;;;;;;;5.45;1.27;;;11.30;99.90;;;;;;4988738;28;20037;-72
2023/04/25 10:55:10;;;;;;;4.93;0.98;;;11.30;99.90;;;;;;4979549;28;20048;-72
2023/04/25 10:57:43;;;;;;;5.57;0.65;;;11.50;99.90;;;;;;4995371;28;20029;-71
2023/04/25 11:00:14;;;;;;;3.50;0.57;;;11.70;99.90;;;;;;4981515;28;20042;-71
2023/04/25 11:02:42;;;;;;;4.72;0.98;;;12.10;99.90;;;;;;5001516;28;20586;-72
2023/04/25 11:05:10;;;;;;;5.32;0.70;;;12.40;99.90;;;;;;4984482;28;20033;-72
2023/04/25 11:07:56;;;;;;;4.15;0.50;;;12.60;99.90;;;;;;4969687;28;20037;-71
2023/04/25 11:10:35;;;;;;;5.63;0.90;;;13.00;99.90;;;;;;4980140;28;20044;-71
2023/04/25 11:13:01;;;;;;;3.88;0.50;;;13.40;99.90;;;;;;4991944;28;20468;-71
2023/04/25 11:15:28;;;;;;;3.35;0.40;;;13.70;99.90;;;;;;4995421;28;20440;-71
2023/04/25 11:17:55;;;;;;;3.65;0.43;;;14.10;99.90;;;;;;4991488;28;20045;-72
2023/04/25 11:20:25;;;;;;;7.43;1.88;;;14.60;99.90;;;;;;4977459;28;20411;-71
2023/04/25 11:22:52;;;;;;;4.57;0.35;;;15.20;99.90;;;;;;4967450;28;20044;-71
2023/04/25 11:25:18;;;;;;;3.53;0.40;;;15.80;99.90;;;;;;4986269;28;20340;-72
2023/04/25 11:27:56;;;;;;;5.60;0.63;;;16.10;99.90;;;;;;4984128;28;20037;-72
2023/04/25 11:30:25;;;;;;;2.75;0.40;;;16.70;99.90;;;;;;4977500;28;20485;-71
2023/04/25 11:32:52;;;;;;;2.90;0.50;;;17.20;99.90;;;;;;4990636;28;20457;-72
2023/04/25 11:35:21;;;;;;;2.67;0.43;;;17.70;99.90;;;;;;4994455;28;20040;-72
2023/04/25 11:37:47;;;;;;;1.38;0.30;;;17.90;96.90;;;;;;4975178;28;20037;-72
2023/04/25 11:40:14;;;;;;;2.08;0.32;;;17.50;94.80;;;;;;5011487;28;20033;-72
2023/04/25 11:42:45;;;;;;;2.70;0.40;;;17.60;90.90;;;;;;4983352;28;20030;-72
2023/04/25 11:45:11;;;;;;;2.00;0.32;;;17.60;87.30;;;;;;4984797;28;20516;-72
2023/04/25 11:47:38;;;;;;;4.22;0.57;;;17.80;85.50;;;;;;4998621;28;20682;-72
2023/04/25 11:50:07;;;;;;;1.88;0.40;;;18.10;84.40;;;;;;4965924;28;20076;-72
2023/04/25 11:52:44;;;;;;;2.65;0.40;;;18.50;85.00;;;;;;4985556;28;20080;-72
2023/04/25 11:55:19;;;;;;;2.13;0.30;;;18.10;79.90;;;;;;4994998;28;20033;-72
2023/04/25 11:57:48;;;;;;;3.38;0.40;;;17.40;79.50;;;;;;4997491;28;20036;-72
2023/04/25 12:00:17;;;;;;;4.95;0.57;;;17.50;81.00;;;;;;4969094;28;20689;-71
2023/04/25 12:02:45;;;;;;;2.70;0.50;;;18.10;81.10;;;;;;4988386;28;20052;-72
2023/04/25 12:05:13;;;;;;;2.47;0.30;;;18.80;81.30;;;;;;4986638;28;20056;-72
2023/04/25 12:07:40;;;;;;;2.63;0.40;;;19.60;79.60;;;;;;4992155;28;20058;-71
2023/04/25 12:10:09;;;;;;;1.70;0.32;;;20.30;76.40;;;;;;4987337;28;20289;-72
2023/04/25 12:12:36;;;;;;;1.90;0.40;;;20.60;74.40;;;;;;4990728;28;20056;-71
2023/04/25 12:15:15;;;;;;;5.25;0.50;;;20.10;73.20;;;;;;4999807;28;20029;-71
2023/04/25 12:17:49;;;;;;;2.92;0.40;;;18.90;71.10;;;;;;4999441;28;20032;-71
2023/04/25 12:20:18;;;;;;;5.15;0.40;;;17.60;74.70;;;;;;5018244;28;20651;-71
2023/04/25 12:22:46;;;;;;;4.00;0.45;;;16.50;77.40;;;;;;4988507;28;20688;-71
2023/04/25 12:25:13;;;;;;;5.28;0.40;;;15.60;81.10;;;;;;4989182;28;20044;-70
2023/04/25 12:27:41;;;;;;;3.40;0.35;;;14.70;83.60;;;;;;4988380;28;20033;-70
2023/04/25 12:30:08;;;;;;;4.18;0.43;;;14.00;85.70;;;;;;5000625;28;21415;-71
2023/04/25 12:32:35;;;;;;;3.30;0.38;;;13.40;87.20;;;;;;4993076;28;20033;-71
2023/04/25 12:35:01;;;;;;;3.47;0.50;;;13.10;88.90;;;;;;4995885;28;20056;-71
2023/04/25 12:37:28;;;;;;;3.58;0.35;;;12.90;90.10;;;;;;4998383;28;20029;-70
2023/04/25 12:39:55;;;;;;;2.28;0.50;;;12.90;90.30;;;;;;4990728;28;20034;-70
2023/04/25 12:42:21;;;;;;;3.30;0.30;;;12.90;90.10;;;;;;4988780;28;20317;-71
2023/04/25 12:44:47;;;;;;;3.60;0.50;;;12.80;89.70;;;;;;4989161;28;20037;-71
2023/04/25 12:47:14;;;;;;;4.78;0.40;;;12.80;90.00;;;;;;4990007;28;20033;-70
2023/04/25 12:49:41;;;;;;;2.75;0.40;;;12.80;90.40;;;;;;5016705;28;20041;-71
2023/04/25 12:52:07;;;;;;;6.10;0.68;;;12.90;90.50;;;;;;4990423;28;20791;-72
2023/04/25 12:54:33;;;;;;;5.75;0.50;;;13.00;90.60;;;;;;4999930;28;20055;-72
2023/04/25 12:57:02;;;;;;;3.17;0.68;;;13.30;90.80;;;;;;4998089;28;20036;-72
2023/04/25 12:59:28;;;;;;;2.72;0.40;;;14.10;91.30;;;;;;4991235;28;20025;-71
2023/04/25 13:01:55;;;;;;;5.22;0.50;;;15.10;90.70;;;;;;4985683;28;20246;-70
2023/04/25 13:04:21;;;;;;;5.28;0.50;;;15.40;89.70;;;;;;4987563;28;20041;-71